sensor_id;sensor_type;location;lat;lon;timestamp;pressure;altitude;pressure_sealevel;temperature;humidity
47556;BME280;33291;46.222;26.460;2023-12-20T00:00:13;96564.25;;;1.87;76.73
47556;BME280;33291;46.222;26.460;2023-12-20T00:02:39;96564.44;;;1.84;76.31
47556;BME280;33291;46.222;26.460;2023-12-20T00:05:05;96560.09;;;1.85;76.06
47556;BME280;33291;46.222;26.460;2023-12-20T00:07:30;96553.97;;;1.87;75.87
47556;BME280;33291;46.222;26.460;2023-12-20T00:09:56;96539.25;;;1.75;76.24
47556;BME280;33291;46.222;26.460;2023-12-20T00:12:21;96551.16;;;1.76;77.17
47556;BME280;33291;46.222;26.460;2023-12-20T00:14:47;96542.22;;;1.83;74.54
47556;BME280;33291;46.222;26.460;2023-12-20T00:17:12;96537.97;;;1.82;75.82
47556;BME280;33291;46.222;26.460;2023-12-20T00:19:38;96535.56;;;1.79;75.50
47556;BME280;33291;46.222;26.460;2023-12-20T00:22:04;96529.22;;;1.70;76.34
47556;BME280;33291;46.222;26.460;2023-12-20T00:24:29;96527.63;;;1.68;76.59
47556;BME280;33291;46.222;26.460;2023-12-20T00:26:55;96516.97;;;1.59;76.80
47556;BME280;33291;46.222;26.460;2023-12-20T00:29:20;96527.00;;;1.64;76.70
47556;BME280;33291;46.222;26.460;2023-12-20T00:31:46;96523.91;;;1.57;77.21
47556;BME280;33291;46.222;26.460;2023-12-20T00:34:11;96527.47;;;1.55;76.50
47556;BME280;33291;46.222;26.460;2023-12-20T00:36:37;96520.53;;;1.57;76.86
47556;BME280;33291;46.222;26.460;2023-12-20T00:39:02;96519.03;;;1.53;77.41
47556;BME280;33291;46.222;26.460;2023-12-20T00:41:28;96510.06;;;1.44;77.76
47556;BME280;33291;46.222;26.460;2023-12-20T00:43:54;96482.75;;;1.27;77.41
47556;BME280;33291;46.222;26.460;2023-12-20T00:46:19;96502.28;;;1.46;76.83
47556;BME280;33291;46.222;26.460;2023-12-20T00:48:44;96521.66;;;1.51;77.12
47556;BME280;33291;46.222;26.460;2023-12-20T00:51:11;96521.66;;;1.51;77.15
47556;BME280;33291;46.222;26.460;2023-12-20T00:53:36;96513.97;;;1.51;76.90
47556;BME280;33291;46.222;26.460;2023-12-20T00:56:02;96515.03;;;1.47;77.21
47556;BME280;33291;46.222;26.460;2023-12-20T00:58:28;96509.91;;;1.47;76.98
47556;BME280;33291;46.222;26.460;2023-12-20T01:00:53;96515.63;;;1.52;76.28
47556;BME280;33291;46.222;26.460;2023-12-20T01:03:19;96503.88;;;1.48;76.12
47556;BME280;33291;46.222;26.460;2023-12-20T01:05:44;96505.13;;;1.57;76.10
47556;BME280;33291;46.222;26.460;2023-12-20T01:08:10;96501.72;;;1.56;75.68
47556;BME280;33291;46.222;26.460;2023-12-20T01:10:35;96501.66;;;1.58;76.07
47556;BME280;33291;46.222;26.460;2023-12-20T01:13:01;96496.97;;;1.49;77.60
47556;BME280;33291;46.222;26.460;2023-12-20T01:15:26;96504.03;;;1.45;77.38
47556;BME280;33291;46.222;26.460;2023-12-20T01:17:52;96492.09;;;1.44;76.89
47556;BME280;33291;46.222;26.460;2023-12-20T01:20:17;96491.59;;;1.53;75.50
47556;BME280;33291;46.222;26.460;2023-12-20T01:22:45;96484.84;;;1.52;76.83
47556;BME280;33291;46.222;26.460;2023-12-20T01:25:11;96475.06;;;1.43;76.76
47556;BME280;33291;46.222;26.460;2023-12-20T01:27:37;96469.34;;;1.38;76.83
47556;BME280;33291;46.222;26.460;2023-12-20T01:30:03;96470.66;;;1.45;76.93
47556;BME280;33291;46.222;26.460;2023-12-20T01:32:29;96452.31;;;1.37;77.10
47556;BME280;33291;46.222;26.460;2023-12-20T01:34:55;96469.16;;;1.41;77.61
47556;BME280;33291;46.222;26.460;2023-12-20T01:37:20;96462.72;;;1.34;78.15
47556;BME280;33291;46.222;26.460;2023-12-20T01:39:46;96463.22;;;1.24;78.76
47556;BME280;33291;46.222;26.460;2023-12-20T01:42:11;96461.41;;;1.27;77.37
47556;BME280;33291;46.222;26.460;2023-12-20T01:44:37;96469.00;;;1.28;77.35
47556;BME280;33291;46.222;26.460;2023-12-20T01:47:03;96465.53;;;1.29;77.94
47556;BME280;33291;46.222;26.460;2023-12-20T01:49:28;96462.38;;;1.24;78.54
47556;BME280;33291;46.222;26.460;2023-12-20T01:51:54;96458.41;;;1.18;78.95
47556;BME280;33291;46.222;26.460;2023-12-20T01:54:20;96453.25;;;1.18;78.64
47556;BME280;33291;46.222;26.460;2023-12-20T01:56:46;96440.59;;;1.15;79.46
47556;BME280;33291;46.222;26.460;2023-12-20T01:59:12;96430.25;;;1.17;78.33
47556;BME280;33291;46.222;26.460;2023-12-20T02:01:38;96426.38;;;1.26;77.83
47556;BME280;33291;46.222;26.460;2023-12-20T02:04:03;96437.06;;;1.34;76.53
47556;BME280;33291;46.222;26.460;2023-12-20T02:06:30;96433.06;;;1.44;76.14
47556;BME280;33291;46.222;26.460;2023-12-20T02:08:58;96425.97;;;1.49;75.73
47556;BME280;33291;46.222;26.460;2023-12-20T02:11:25;96431.81;;;1.51;76.42
47556;BME280;33291;46.222;26.460;2023-12-20T02:13:51;96422.97;;;1.41;77.44
47556;BME280;33291;46.222;26.460;2023-12-20T02:16:16;96418.34;;;1.32;77.70
47556;BME280;33291;46.222;26.460;2023-12-20T02:18:43;96418.34;;;1.32;77.49
47556;BME280;33291;46.222;26.460;2023-12-20T02:21:09;96423.06;;;1.23;78.32
47556;BME280;33291;46.222;26.460;2023-12-20T02:23:35;96413.97;;;1.18;78.55
47556;BME280;33291;46.222;26.460;2023-12-20T02:26:01;96402.81;;;1.19;78.41
47556;BME280;33291;46.222;26.460;2023-12-20T02:28:26;96395.03;;;1.20;78.65
47556;BME280;33291;46.222;26.460;2023-12-20T02:30:53;96402.19;;;1.14;79.59
47556;BME280;33291;46.222;26.460;2023-12-20T02:33:18;96402.44;;;1.09;79.21
47556;BME280;33291;46.222;26.460;2023-12-20T02:35:44;96400.47;;;1.14;79.32
47556;BME280;33291;46.222;26.460;2023-12-20T02:38:09;96384.50;;;1.09;79.63
47556;BME280;33291;46.222;26.460;2023-12-20T02:40:35;96393.94;;;1.09;79.45
47556;BME280;33291;46.222;26.460;2023-12-20T02:43:00;96381.88;;;0.95;79.96
47556;BME280;33291;46.222;26.460;2023-12-20T02:45:26;96380.97;;;0.96;79.92
47556;BME280;33291;46.222;26.460;2023-12-20T02:47:52;96393.38;;;1.03;79.90
47556;BME280;33291;46.222;26.460;2023-12-20T02:50:17;96392.34;;;1.06;79.88
47556;BME280;33291;46.222;26.460;2023-12-20T02:52:44;96387.47;;;1.01;79.90
47556;BME280;33291;46.222;26.460;2023-12-20T02:55:10;96386.09;;;0.96;80.43
47556;BME280;33291;46.222;26.460;2023-12-20T02:57:35;96379.94;;;0.98;79.99
47556;BME280;33291;46.222;26.460;2023-12-20T03:00:01;96376.81;;;0.93;80.04
47556;BME280;33291;46.222;26.460;2023-12-20T03:02:27;96385.16;;;0.97;80.23
47556;BME280;33291;46.222;26.460;2023-12-20T03:04:52;96376.56;;;0.98;79.85
47556;BME280;33291;46.222;26.460;2023-12-20T03:07:19;96362.94;;;0.97;79.97
47556;BME280;33291;46.222;26.460;2023-12-20T03:09:45;96346.47;;;0.85;80.33
47556;BME280;33291;46.222;26.460;2023-12-20T03:12:10;96362.56;;;0.87;81.05
47556;BME280;33291;46.222;26.460;2023-12-20T03:14:36;96364.56;;;0.82;81.16
47556;BME280;33291;46.222;26.460;2023-12-20T03:17:01;96357.94;;;0.78;80.46
47556;BME280;33291;46.222;26.460;2023-12-20T03:19:27;96354.88;;;0.87;80.36
47556;BME280;33291;46.222;26.460;2023-12-20T03:21:52;96357.78;;;0.81;81.28
47556;BME280;33291;46.222;26.460;2023-12-20T03:24:18;96332.81;;;0.69;81.66
47556;BME280;33291;46.222;26.460;2023-12-20T03:26:44;96349.75;;;0.72;81.26
47556;BME280;33291;46.222;26.460;2023-12-20T03:29:09;96346.94;;;0.76;80.83
47556;BME280;33291;46.222;26.460;2023-12-20T03:31:35;96341.81;;;0.76;80.76
47556;BME280;33291;46.222;26.460;2023-12-20T03:34:00;96337.50;;;0.77;80.88
47556;BME280;33291;46.222;26.460;2023-12-20T03:36:26;96348.59;;;0.77;80.74
47556;BME280;33291;46.222;26.460;2023-12-20T03:38:51;96338.16;;;0.80;80.41
47556;BME280;33291;46.222;26.460;2023-12-20T03:41:17;96335.69;;;0.79;80.28
47556;BME280;33291;46.222;26.460;2023-12-20T03:43:42;96337.59;;;0.75;80.84
47556;BME280;33291;46.222;26.460;2023-12-20T03:46:08;96335.03;;;0.75;80.75
47556;BME280;33291;46.222;26.460;2023-12-20T03:48:34;96325.59;;;0.76;81.05
47556;BME280;33291;46.222;26.460;2023-12-20T03:50:59;96313.94;;;0.70;80.64
47556;BME280;33291;46.222;26.460;2023-12-20T03:53:25;96319.91;;;0.70;81.28
47556;BME280;33291;46.222;26.460;2023-12-20T03:55:50;96320.31;;;0.63;81.93
47556;BME280;33291;46.222;26.460;2023-12-20T03:58:16;96323.03;;;0.60;82.20
47556;BME280;33291;46.222;26.460;2023-12-20T04:00:41;96320.81;;;0.53;81.91
47556;BME280;33291;46.222;26.460;2023-12-20T04:03:07;96318.25;;;0.53;81.88
47556;BME280;33291;46.222;26.460;2023-12-20T04:05:32;96310.81;;;0.49;81.94
47556;BME280;33291;46.222;26.460;2023-12-20T04:07:59;96310.72;;;0.50;82.42
47556;BME280;33291;46.222;26.460;2023-12-20T04:10:25;96326.00;;;0.52;82.76
47556;BME280;33291;46.222;26.460;2023-12-20T04:12:50;96313.38;;;0.49;82.50
47556;BME280;33291;46.222;26.460;2023-12-20T04:15:16;96309.28;;;0.45;82.32
47556;BME280;33291;46.222;26.460;2023-12-20T04:17:41;96315.88;;;0.33;83.51
47556;BME280;33291;46.222;26.460;2023-12-20T04:20:07;96306.50;;;0.33;83.66
47556;BME280;33291;46.222;26.460;2023-12-20T04:22:33;96295.56;;;0.30;83.33
47556;BME280;33291;46.222;26.460;2023-12-20T04:24:58;96294.06;;;0.26;83.79
47556;BME280;33291;46.222;26.460;2023-12-20T04:27:24;96304.31;;;0.26;84.33
47556;BME280;33291;46.222;26.460;2023-12-20T04:29:49;96296.69;;;0.24;84.42
47556;BME280;33291;46.222;26.460;2023-12-20T04:32:15;96293.75;;;0.32;83.06
47556;BME280;33291;46.222;26.460;2023-12-20T04:34:40;96292.50;;;0.39;82.10
47556;BME280;33291;46.222;26.460;2023-12-20T04:37:06;96289.63;;;0.45;82.14
47556;BME280;33291;46.222;26.460;2023-12-20T04:39:31;96286.88;;;0.48;81.92
47556;BME280;33291;46.222;26.460;2023-12-20T04:41:58;96289.53;;;0.47;82.77
47556;BME280;33291;46.222;26.460;2023-12-20T04:44:24;96288.31;;;0.38;83.25
47556;BME280;33291;46.222;26.460;2023-12-20T04:46:49;96274.72;;;0.36;83.05
47556;BME280;33291;46.222;26.460;2023-12-20T04:49:15;96272.00;;;0.39;82.28
47556;BME280;33291;46.222;26.460;2023-12-20T04:51:40;96266.97;;;0.38;82.67
47556;BME280;33291;46.222;26.460;2023-12-20T04:54:05;96268.38;;;0.43;82.44
47556;BME280;33291;46.222;26.460;2023-12-20T04:56:31;96263.34;;;0.42;83.01
47556;BME280;33291;46.222;26.460;2023-12-20T04:58:57;96259.97;;;0.41;82.80
47556;BME280;33291;46.222;26.460;2023-12-20T05:01:22;96259.97;;;0.41;83.12
47556;BME280;33291;46.222;26.460;2023-12-20T05:03:48;96257.56;;;0.38;83.23
47556;BME280;33291;46.222;26.460;2023-12-20T05:06:13;96242.44;;;0.33;83.32
47556;BME280;33291;46.222;26.460;2023-12-20T05:08:40;96249.19;;;0.34;83.53
47556;BME280;33291;46.222;26.460;2023-12-20T05:11:06;96254.41;;;0.33;83.45
47556;BME280;33291;46.222;26.460;2023-12-20T05:13:31;96255.00;;;0.38;82.22
47556;BME280;33291;46.222;26.460;2023-12-20T05:15:57;96243.81;;;0.39;83.00
47556;BME280;33291;46.222;26.460;2023-12-20T05:18:22;96241.50;;;0.34;83.52
47556;BME280;33291;46.222;26.460;2023-12-20T05:20:49;96246.53;;;0.36;83.39
47556;BME280;33291;46.222;26.460;2023-12-20T05:23:15;96230.59;;;0.31;82.78
47556;BME280;33291;46.222;26.460;2023-12-20T05:25:40;96238.59;;;0.41;82.24
47556;BME280;33291;46.222;26.460;2023-12-20T05:28:06;96231.59;;;0.44;82.20
47556;BME280;33291;46.222;26.460;2023-12-20T05:30:32;96230.84;;;0.42;82.89
47556;BME280;33291;46.222;26.460;2023-12-20T05:32:57;96226.91;;;0.37;83.35
47556;BME280;33291;46.222;26.460;2023-12-20T05:35:23;96233.34;;;0.28;84.35
47556;BME280;33291;46.222;26.460;2023-12-20T05:37:49;96217.38;;;0.23;84.32
47556;BME280;33291;46.222;26.460;2023-12-20T05:40:14;96223.16;;;0.26;84.08
47556;BME280;33291;46.222;26.460;2023-12-20T05:42:40;96221.75;;;0.21;84.26
47556;BME280;33291;46.222;26.460;2023-12-20T05:45:06;96220.25;;;0.16;83.65
47556;BME280;33291;46.222;26.460;2023-12-20T05:47:31;96221.84;;;0.19;84.19
47556;BME280;33291;46.222;26.460;2023-12-20T05:49:57;96211.75;;;0.16;83.75
47556;BME280;33291;46.222;26.460;2023-12-20T05:52:23;96209.28;;;0.14;84.91
47556;BME280;33291;46.222;26.460;2023-12-20T05:54:48;96216.22;;;0.12;85.29
47556;BME280;33291;46.222;26.460;2023-12-20T05:57:14;96206.16;;;0.09;85.53
47556;BME280;33291;46.222;26.460;2023-12-20T05:59:40;96202.66;;;0.10;85.47
47556;BME280;33291;46.222;26.460;2023-12-20T06:02:05;96214.41;;;0.14;84.72
47556;BME280;33291;46.222;26.460;2023-12-20T06:04:31;96217.84;;;0.13;84.41
47556;BME280;33291;46.222;26.460;2023-12-20T06:06:57;96212.91;;;0.10;84.22
47556;BME280;33291;46.222;26.460;2023-12-20T06:09:23;96216.22;;;0.12;84.61
47556;BME280;33291;46.222;26.460;2023-12-20T06:11:49;96206.31;;;0.06;84.49
47556;BME280;33291;46.222;26.460;2023-12-20T06:14:15;96214.31;;;0.16;84.20
47556;BME280;33291;46.222;26.460;2023-12-20T06:16:40;96220.09;;;0.20;84.02
47556;BME280;33291;46.222;26.460;2023-12-20T06:19:06;96208.94;;;0.21;83.78
47556;BME280;33291;46.222;26.460;2023-12-20T06:21:31;96220.00;;;0.21;83.51
47556;BME280;33291;46.222;26.460;2023-12-20T06:23:59;96213.91;;;0.24;83.13
47556;BME280;33291;46.222;26.460;2023-12-20T06:26:25;96216.91;;;0.32;82.30
47556;BME280;33291;46.222;26.460;2023-12-20T06:28:50;96222.75;;;0.34;82.99
47556;BME280;33291;46.222;26.460;2023-12-20T06:31:16;96210.59;;;0.22;83.76
47556;BME280;33291;46.222;26.460;2023-12-20T06:33:42;96218.28;;;0.22;83.94
47556;BME280;33291;46.222;26.460;2023-12-20T06:36:11;96214.97;;;0.20;84.33
47556;BME280;33291;46.222;26.460;2023-12-20T06:38:37;96206.88;;;0.11;85.04
47556;BME280;33291;46.222;26.460;2023-12-20T06:41:03;96216.72;;;0.19;84.90
47556;BME280;33291;46.222;26.460;2023-12-20T06:43:28;96221.50;;;0.25;83.34
47556;BME280;33291;46.222;26.460;2023-12-20T06:45:54;96218.53;;;0.33;82.91
47556;BME280;33291;46.222;26.460;2023-12-20T06:48:19;96215.97;;;0.33;83.26
47556;BME280;33291;46.222;26.460;2023-12-20T06:50:46;96209.94;;;0.34;82.99
47556;BME280;33291;46.222;26.460;2023-12-20T06:53:11;96208.44;;;0.30;82.99
47556;BME280;33291;46.222;26.460;2023-12-20T06:55:37;96205.22;;;0.26;82.94
47556;BME280;33291;46.222;26.460;2023-12-20T06:58:03;96212.00;;;0.27;84.17
47556;BME280;33291;46.222;26.460;2023-12-20T07:00:30;96204.56;;;0.23;84.85
47556;BME280;33291;46.222;26.460;2023-12-20T07:02:55;96218.69;;;0.30;85.21
47556;BME280;33291;46.222;26.460;2023-12-20T07:05:21;96202.69;;;0.26;84.44
47556;BME280;33291;46.222;26.460;2023-12-20T07:07:47;96211.41;;;0.22;85.07
47556;BME280;33291;46.222;26.460;2023-12-20T07:10:13;96208.94;;;0.21;84.51
47556;BME280;33291;46.222;26.460;2023-12-20T07:12:39;96209.13;;;0.33;82.79
47556;BME280;33291;46.222;26.460;2023-12-20T07:15:05;96213.66;;;0.44;81.84
47556;BME280;33291;46.222;26.460;2023-12-20T07:17:32;96212.41;;;0.51;81.01
47556;BME280;33291;46.222;26.460;2023-12-20T07:19:58;96210.44;;;0.57;81.44
47556;BME280;33291;46.222;26.460;2023-12-20T07:22:24;96205.38;;;0.55;82.62
47556;BME280;33291;46.222;26.460;2023-12-20T07:24:49;96198.44;;;0.57;82.71
47556;BME280;33291;46.222;26.460;2023-12-20T07:27:17;96189.34;;;0.51;83.70
47556;BME280;33291;46.222;26.460;2023-12-20T07:29:43;96189.91;;;0.57;81.18
47556;BME280;33291;46.222;26.460;2023-12-20T07:32:08;96183.56;;;0.64;81.79
47556;BME280;33291;46.222;26.460;2023-12-20T07:34:34;96181.88;;;0.63;83.23
47556;BME280;33291;46.222;26.460;2023-12-20T07:36:59;96182.06;;;0.60;83.81
47556;BME280;33291;46.222;26.460;2023-12-20T07:39:25;96185.28;;;0.63;82.69
47556;BME280;33291;46.222;26.460;2023-12-20T07:41:50;96178.97;;;0.69;82.45
47556;BME280;33291;46.222;26.460;2023-12-20T07:44:16;96172.19;;;0.68;83.13
47556;BME280;33291;46.222;26.460;2023-12-20T07:46:41;96171.84;;;0.74;83.59
47556;BME280;33291;46.222;26.460;2023-12-20T07:49:07;96165.91;;;0.74;83.12
47556;BME280;33291;46.222;26.460;2023-12-20T07:51:33;96165.00;;;0.75;82.86
47556;BME280;33291;46.222;26.460;2023-12-20T07:54:01;96168.22;;;0.78;81.11
47556;BME280;33291;46.222;26.460;2023-12-20T07:56:28;96162.72;;;0.84;80.19
47556;BME280;33291;46.222;26.460;2023-12-20T07:58:54;96159.09;;;0.88;79.70
47556;BME280;33291;46.222;26.460;2023-12-20T08:01:19;96146.25;;;0.88;79.30
47556;BME280;33291;46.222;26.460;2023-12-20T08:03:45;96148.28;;;0.98;78.98
47556;BME280;33291;46.222;26.460;2023-12-20T08:06:11;96147.13;;;1.03;78.92
47556;BME280;33291;46.222;26.460;2023-12-20T08:08:37;96136.78;;;1.05;79.08
47556;BME280;33291;46.222;26.460;2023-12-20T08:11:02;96146.09;;;1.06;79.06
47556;BME280;33291;46.222;26.460;2023-12-20T08:13:28;96136.41;;;1.11;78.78
47556;BME280;33291;46.222;26.460;2023-12-20T08:15:54;96125.88;;;1.16;78.87
47556;BME280;33291;46.222;26.460;2023-12-20T08:18:21;96122.41;;;1.31;79.31
47556;BME280;33291;46.222;26.460;2023-12-20T08:20:48;96123.25;;;1.46;78.90
47556;BME280;33291;46.222;26.460;2023-12-20T08:23:13;96122.38;;;1.74;77.68
47556;BME280;33291;46.222;26.460;2023-12-20T08:25:39;96114.56;;;1.90;76.84
47556;BME280;33291;46.222;26.460;2023-12-20T08:28:05;96101.69;;;2.32;74.30
47556;BME280;33291;46.222;26.460;2023-12-20T08:30:30;96093.25;;;2.70;73.78
47556;BME280;33291;46.222;26.460;2023-12-20T08:32:59;96091.41;;;3.62;70.03
47556;BME280;33291;46.222;26.460;2023-12-20T08:35:25;96091.25;;;4.14;67.29
47556;BME280;33291;46.222;26.460;2023-12-20T08:37:50;96081.44;;;4.19;66.24
47556;BME280;33291;46.222;26.460;2023-12-20T08:40:16;96080.88;;;4.02;67.56
47556;BME280;33291;46.222;26.460;2023-12-20T08:42:41;96076.50;;;4.16;67.65
47556;BME280;33291;46.222;26.460;2023-12-20T08:45:07;96054.84;;;4.54;65.81
47556;BME280;33291;46.222;26.460;2023-12-20T08:47:33;96059.28;;;4.40;65.33
47556;BME280;33291;46.222;26.460;2023-12-20T08:49:58;96050.94;;;4.13;66.63
47556;BME280;33291;46.222;26.460;2023-12-20T08:52:25;96046.06;;;4.21;67.10
47556;BME280;33291;46.222;26.460;2023-12-20T08:54:52;96045.22;;;4.20;67.82
47556;BME280;33291;46.222;26.460;2023-12-20T08:57:22;96035.03;;;4.19;67.15
47556;BME280;33291;46.222;26.460;2023-12-20T08:59:49;96016.03;;;4.08;68.00
47556;BME280;33291;46.222;26.460;2023-12-20T09:02:15;96021.44;;;4.17;68.65
47556;BME280;33291;46.222;26.460;2023-12-20T09:04:41;96015.72;;;4.24;68.82
47556;BME280;33291;46.222;26.460;2023-12-20T09:07:06;95996.63;;;4.27;69.59
47556;BME280;33291;46.222;26.460;2023-12-20T09:09:33;95994.53;;;4.32;68.79
47556;BME280;33291;46.222;26.460;2023-12-20T09:11:59;95981.34;;;4.59;69.02
47556;BME280;33291;46.222;26.460;2023-12-20T09:14:25;95971.06;;;4.82;69.78
47556;BME280;33291;46.222;26.460;2023-12-20T09:16:50;95978.47;;;5.09;66.94
47556;BME280;33291;46.222;26.460;2023-12-20T09:19:19;95959.56;;;5.31;65.59
47556;BME280;33291;46.222;26.460;2023-12-20T09:21:44;95957.03;;;5.64;62.97
47556;BME280;33291;46.222;26.460;2023-12-20T09:24:10;95952.34;;;5.90;64.41
47556;BME280;33291;46.222;26.460;2023-12-20T09:26:36;95942.56;;;6.05;64.29
47556;BME280;33291;46.222;26.460;2023-12-20T09:29:01;95936.88;;;6.22;63.04
47556;BME280;33291;46.222;26.460;2023-12-20T09:31:27;95925.19;;;6.49;62.15
47556;BME280;33291;46.222;26.460;2023-12-20T09:33:52;95918.06;;;6.72;60.71
47556;BME280;33291;46.222;26.460;2023-12-20T09:36:18;95908.13;;;6.99;61.68
47556;BME280;33291;46.222;26.460;2023-12-20T09:38:43;95896.31;;;7.25;59.90
47556;BME280;33291;46.222;26.460;2023-12-20T09:41:09;95899.78;;;7.65;58.93
47556;BME280;33291;46.222;26.460;2023-12-20T09:43:38;95876.88;;;7.90;57.62
47556;BME280;33291;46.222;26.460;2023-12-20T09:46:05;95878.50;;;8.20;56.70
47556;BME280;33291;46.222;26.460;2023-12-20T09:48:32;95870.78;;;8.48;56.19
47556;BME280;33291;46.222;26.460;2023-12-20T09:50:59;95851.06;;;8.65;56.00
47556;BME280;33291;46.222;26.460;2023-12-20T09:53:25;95848.53;;;8.83;56.64
47556;BME280;33291;46.222;26.460;2023-12-20T09:55:58;95836.47;;;8.92;56.36
47556;BME280;33291;46.222;26.460;2023-12-20T09:58:25;95834.25;;;8.97;54.19
47556;BME280;33291;46.222;26.460;2023-12-20T10:00:51;95832.59;;;8.96;53.74
47556;BME280;33291;46.222;26.460;2023-12-20T10:03:23;95824.28;;;8.92;55.80
47556;BME280;33291;46.222;26.460;2023-12-20T10:05:52;95830.50;;;8.81;56.70
47556;BME280;33291;46.222;26.460;2023-12-20T10:08:21;95830.00;;;8.68;56.87
47556;BME280;33291;46.222;26.460;2023-12-20T10:10:47;95822.94;;;8.60;57.16
47556;BME280;33291;46.222;26.460;2023-12-20T10:13:13;95820.25;;;8.52;58.19
47556;BME280;33291;46.222;26.460;2023-12-20T10:15:38;95802.22;;;8.41;58.46
47556;BME280;33291;46.222;26.460;2023-12-20T10:18:05;95800.84;;;8.36;58.93
47556;BME280;33291;46.222;26.460;2023-12-20T10:20:31;95802.13;;;8.32;58.11
47556;BME280;33291;46.222;26.460;2023-12-20T10:22:58;95799.53;;;8.32;58.85
47556;BME280;33291;46.222;26.460;2023-12-20T10:25:24;95801.41;;;8.30;59.96
47556;BME280;33291;46.222;26.460;2023-12-20T10:28:08;95795.41;;;8.30;61.04
47556;BME280;33291;46.222;26.460;2023-12-20T10:30:33;95788.06;;;8.25;60.17
47556;BME280;33291;46.222;26.460;2023-12-20T10:32:59;95791.31;;;8.27;61.12
47556;BME280;33291;46.222;26.460;2023-12-20T10:35:25;95771.28;;;8.19;61.68
47556;BME280;33291;46.222;26.460;2023-12-20T10:37:56;95783.16;;;8.22;61.57
47556;BME280;33291;46.222;26.460;2023-12-20T10:40:22;95782.34;;;8.22;61.42
47556;BME280;33291;46.222;26.460;2023-12-20T10:42:48;95769.81;;;8.17;61.99
47556;BME280;33291;46.222;26.460;2023-12-20T10:45:16;95773.88;;;8.19;62.38
47556;BME280;33291;46.222;26.460;2023-12-20T10:47:46;95757.50;;;8.19;63.36
47556;BME280;33291;46.222;26.460;2023-12-20T10:50:12;95754.53;;;8.14;64.45
47556;BME280;33291;46.222;26.460;2023-12-20T10:52:38;95760.38;;;8.16;66.26
47556;BME280;33291;46.222;26.460;2023-12-20T10:55:06;95752.22;;;8.11;65.35
47556;BME280;33291;46.222;26.460;2023-12-20T10:57:32;95739.25;;;8.11;66.25
47556;BME280;33291;46.222;26.460;2023-12-20T11:00:00;95749.84;;;8.17;66.17
47556;BME280;33291;46.222;26.460;2023-12-20T11:02:31;95743.88;;;8.17;66.50
47556;BME280;33291;46.222;26.460;2023-12-20T11:05:09;95747.66;;;8.23;65.64
47556;BME280;33291;46.222;26.460;2023-12-20T11:07:39;95748.19;;;8.26;67.00
47556;BME280;33291;46.222;26.460;2023-12-20T11:10:20;95744.75;;;8.26;67.43
47556;BME280;33291;46.222;26.460;2023-12-20T11:13:03;95738.78;;;8.25;69.41
47556;BME280;33291;46.222;26.460;2023-12-20T11:15:35;95727.31;;;8.18;67.47
47556;BME280;33291;46.222;26.460;2023-12-20T11:18:02;95738.25;;;8.22;67.09
47556;BME280;33291;46.222;26.460;2023-12-20T11:20:39;95736.84;;;8.27;68.91
47556;BME280;33291;46.222;26.460;2023-12-20T11:23:06;95741.38;;;8.25;72.61
47556;BME280;33291;46.222;26.460;2023-12-20T11:25:55;95734.81;;;8.21;72.26
47556;BME280;33291;46.222;26.460;2023-12-20T11:28:22;95725.41;;;8.20;72.35
47556;BME280;33291;46.222;26.460;2023-12-20T11:30:51;95725.28;;;8.22;73.50
47556;BME280;33291;46.222;26.460;2023-12-20T11:33:17;95726.38;;;8.19;72.34
47556;BME280;33291;46.222;26.460;2023-12-20T11:35:46;95709.72;;;8.12;70.31
47556;BME280;33291;46.222;26.460;2023-12-20T11:38:13;95730.31;;;8.23;67.08
47556;BME280;33291;46.222;26.460;2023-12-20T11:40:41;95737.69;;;8.28;67.06
47556;BME280;33291;46.222;26.460;2023-12-20T11:43:07;95729.34;;;8.24;70.36
47556;BME280;33291;46.222;26.460;2023-12-20T11:45:33;95726.59;;;8.26;72.20
47556;BME280;33291;46.222;26.460;2023-12-20T11:48:01;95712.44;;;8.20;75.25
47556;BME280;33291;46.222;26.460;2023-12-20T11:50:28;95717.94;;;8.17;72.93
47556;BME280;33291;46.222;26.460;2023-12-20T11:52:55;95707.28;;;8.10;70.96
47556;BME280;33291;46.222;26.460;2023-12-20T11:55:21;95704.41;;;8.13;69.34
47556;BME280;33291;46.222;26.460;2023-12-20T11:57:47;95701.22;;;8.19;70.51
47556;BME280;33291;46.222;26.460;2023-12-20T12:00:13;95692.66;;;8.19;71.71
47556;BME280;33291;46.222;26.460;2023-12-20T12:02:39;95693.59;;;8.18;73.93
47556;BME280;33291;46.222;26.460;2023-12-20T12:05:05;95682.03;;;8.12;71.80
47556;BME280;33291;46.222;26.460;2023-12-20T12:07:31;95684.19;;;8.17;72.43
47556;BME280;33291;46.222;26.460;2023-12-20T12:09:57;95677.50;;;8.14;73.72
47556;BME280;33291;46.222;26.460;2023-12-20T12:12:23;95668.53;;;8.09;73.33
47556;BME280;33291;46.222;26.460;2023-12-20T12:14:50;95678.59;;;8.12;74.02
47556;BME280;33291;46.222;26.460;2023-12-20T12:17:16;95662.97;;;8.04;74.23
47556;BME280;33291;46.222;26.460;2023-12-20T12:19:42;95652.72;;;8.02;73.86
47556;BME280;33291;46.222;26.460;2023-12-20T12:22:13;95663.63;;;8.06;73.27
47556;BME280;33291;46.222;26.460;2023-12-20T12:24:44;95659.38;;;8.05;71.87
47556;BME280;33291;46.222;26.460;2023-12-20T12:27:10;95647.00;;;7.98;71.81
47556;BME280;33291;46.222;26.460;2023-12-20T12:29:37;95653.78;;;8.09;74.57
47556;BME280;33291;46.222;26.460;2023-12-20T12:32:09;95653.25;;;8.06;75.74
47556;BME280;33291;46.222;26.460;2023-12-20T12:34:35;95645.59;;;8.04;75.64
47556;BME280;33291;46.222;26.460;2023-12-20T12:37:01;95629.13;;;7.95;76.52
47556;BME280;33291;46.222;26.460;2023-12-20T12:39:29;95645.09;;;8.00;76.67
47556;BME280;33291;46.222;26.460;2023-12-20T12:41:55;95639.34;;;7.97;77.69
47556;BME280;33291;46.222;26.460;2023-12-20T12:44:21;95632.00;;;7.92;77.59
47556;BME280;33291;46.222;26.460;2023-12-20T12:46:49;95621.94;;;7.89;77.73
47556;BME280;33291;46.222;26.460;2023-12-20T12:49:22;95622.63;;;7.91;75.93
47556;BME280;33291;46.222;26.460;2023-12-20T12:51:48;95615.50;;;7.93;74.18
47556;BME280;33291;46.222;26.460;2023-12-20T12:54:13;95615.06;;;7.98;74.48